createdAt,value
2018-04-17T07:07:44.991Z,1271.25
2018-04-17T07:10:17.313Z,1513.13
2018-04-17T07:11:16.853Z,1496.25
2018-04-17T07:12:17.019Z,1513.13
2018-04-17T07:13:17.188Z,1276.88
2018-04-17T07:14:17.355Z,1248.75
2018-04-17T07:15:17.525Z,1125.00
2018-04-17T07:16:17.693Z,1209.38
2018-04-17T07:17:17.864Z,1428.75
2018-04-17T07:18:18.085Z,1333.13
2018-04-17T07:19:18.238Z,1389.38
2018-04-17T07:20:18.419Z,1372.50
2018-04-17T07:21:18.597Z,1305.00
2018-04-17T07:22:26.441Z,1462.50
2018-04-17T07:23:18.978Z,1305.00
2018-04-17T07:24:19.149Z,1254.38
2018-04-17T07:25:19.319Z,1282.50
2018-04-17T07:26:19.487Z,1265.63
2018-04-17T07:27:19.653Z,1243.13
2018-04-17T07:28:19.820Z,1293.75
2018-04-17T07:29:19.995Z,1361.25
2018-04-17T07:30:20.167Z,1558.13
2018-04-17T07:31:20.336Z,1378.13
2018-04-17T07:32:20.508Z,1243.13
2018-04-17T07:33:20.680Z,1546.88
2018-04-17T07:34:20.857Z,1766.25
2018-04-17T07:35:21.018Z,1518.75
2018-04-17T07:36:21.188Z,1406.25
2018-04-17T07:38:53.485Z,686.25
2018-04-17T07:39:53.655Z,601.88
2018-04-17T07:40:53.827Z,590.63
2018-04-17T07:41:54.000Z,596.25
2018-04-17T07:42:54.150Z,725.63
2018-04-17T07:43:54.319Z,1096.88
2018-04-17T07:44:54.489Z,1209.38
2018-04-17T07:45:54.659Z,1260.00
2018-04-17T07:46:54.841Z,1361.25
2018-04-17T07:47:55.018Z,1473.75
2018-04-17T07:48:55.189Z,1546.88
2018-04-17T07:49:55.360Z,1546.88
2018-04-17T07:50:55.523Z,1912.50
2018-04-17T07:51:55.696Z,2143.13
2018-04-17T07:52:55.886Z,2137.50
2018-04-17T07:55:38.451Z,1738.13
2018-04-17T07:56:38.613Z,1861.88
2018-04-17T07:57:38.793Z,2030.63
2018-04-17T07:58:38.961Z,2131.88
2018-04-17T07:59:39.132Z,2328.75
2018-04-17T08:00:39.296Z,2058.75
2018-04-17T08:01:39.473Z,1569.38
2018-04-17T08:02:39.640Z,1462.50
2018-04-17T08:03:39.819Z,1479.38
2018-04-17T08:04:39.992Z,1693.13
2018-04-17T08:05:40.161Z,1608.75
2018-04-17T08:06:40.334Z,1406.25
2018-04-17T08:07:40.496Z,1490.63
2018-04-17T08:08:40.674Z,1805.63
2018-04-17T08:09:40.852Z,1912.50
2018-04-17T08:12:23.123Z,1755.00
2018-04-17T08:13:23.289Z,1698.75
2018-04-17T08:14:23.463Z,1839.38
2018-04-17T08:15:23.632Z,1957.50
2018-04-17T08:16:23.812Z,2233.13
2018-04-17T08:17:23.976Z,2013.75
2018-04-17T08:18:24.147Z,1665.00
2018-04-17T08:19:24.317Z,1586.25
2018-04-17T08:20:24.484Z,1440.00
2018-04-17T08:21:24.665Z,1417.50
2018-04-17T08:22:32.505Z,1265.63
2018-04-17T08:23:25.047Z,1276.88
2018-04-17T08:24:25.219Z,1546.88
2018-04-17T08:25:25.398Z,1327.50
2018-04-17T08:26:25.588Z,1816.88
2018-04-17T08:27:25.765Z,2103.75
2018-04-17T08:28:25.936Z,1906.88
2018-04-17T08:29:26.111Z,1681.88
2018-04-17T08:30:27.250Z,1636.88
2018-04-17T08:31:26.469Z,1485.00
2018-04-17T08:32:26.634Z,1440.00
2018-04-17T08:33:26.808Z,1788.75
2018-04-17T08:34:26.979Z,1721.25
2018-04-17T08:35:27.150Z,1535.63
2018-04-17T08:36:27.329Z,1209.38
2018-04-17T08:39:09.902Z,1603.13
2018-04-17T08:40:10.079Z,984.38
2018-04-17T08:41:11.149Z,607.50
2018-04-17T08:42:10.439Z,596.25
2018-04-17T08:43:10.609Z,585.00
2018-04-17T08:44:10.770Z,585.00
2018-04-17T08:45:10.957Z,573.75
2018-04-17T08:46:19.071Z,573.75
2018-04-17T08:47:11.235Z,562.50
2018-04-17T08:48:11.404Z,562.50
2018-04-17T08:49:11.580Z,556.88
2018-04-17T08:50:11.750Z,556.88
2018-04-17T08:51:11.922Z,551.25
2018-04-17T08:52:12.088Z,556.88
2018-04-17T08:53:12.268Z,551.25
2018-04-17T08:54:12.432Z,556.88
2018-04-17T08:55:12.603Z,556.88
2018-04-17T08:56:12.788Z,556.88
2018-04-17T08:57:12.960Z,556.88
2018-04-17T08:58:13.128Z,556.88
2018-04-17T08:59:13.302Z,562.50
2018-04-17T09:00:13.473Z,556.88
2018-04-17T09:02:45.755Z,562.50
2018-04-17T09:03:45.929Z,568.13
2018-04-17T09:04:46.098Z,568.13
2018-04-17T09:05:46.267Z,568.13
2018-04-17T09:06:46.437Z,573.75
2018-04-17T09:07:46.830Z,579.38
2018-04-17T09:08:46.785Z,585.00
2018-04-17T09:09:46.963Z,590.63
2018-04-17T09:10:47.132Z,635.63
2018-04-17T09:11:47.323Z,1260.00
2018-04-17T09:12:47.473Z,1867.50
2018-04-17T09:13:47.644Z,1985.63
2018-04-17T09:14:47.815Z,2030.63
2018-04-17T09:15:47.985Z,2109.38
2018-04-17T09:16:48.168Z,1906.88
2018-04-17T09:19:20.469Z,1721.25
2018-04-17T09:20:20.644Z,1890.00
2018-04-17T09:21:20.810Z,2238.75
2018-04-17T09:22:20.983Z,2216.25
2018-04-17T09:23:21.154Z,2244.38
2018-04-17T09:24:21.352Z,1985.63
2018-04-17T09:25:21.526Z,2030.63
2018-04-17T09:26:21.695Z,2047.50
2018-04-17T09:27:21.869Z,2058.75
2018-04-17T09:28:22.050Z,1721.25
2018-04-17T09:29:22.266Z,1321.88
2018-04-17T09:30:22.384Z,1023.75
2018-04-17T09:31:22.779Z,787.50
2018-04-17T09:32:22.740Z,995.63
2018-04-17T09:33:22.910Z,1220.63
2018-04-17T09:36:05.260Z,770.63
2018-04-17T09:37:05.377Z,810.00
2018-04-17T09:38:05.551Z,1220.63
2018-04-17T09:39:05.727Z,1248.75
2018-04-17T09:40:13.852Z,1192.50
2018-04-17T09:41:06.014Z,1350.00
2018-04-17T09:42:06.197Z,1406.25
2018-04-17T09:43:06.362Z,1794.38
2018-04-17T09:44:06.533Z,1704.38
2018-04-17T09:45:06.709Z,1147.50
2018-04-17T09:46:06.889Z,1040.63
2018-04-17T09:47:07.063Z,1383.75
2018-04-17T09:48:07.237Z,1051.88
2018-04-17T09:49:07.413Z,1040.63
2018-04-17T09:50:07.586Z,995.63
2018-04-17T09:51:07.764Z,1642.50
2018-04-17T09:52:08.744Z,2109.38
2018-04-17T09:53:08.168Z,2070.00
2018-04-17T09:54:08.347Z,1918.13
2018-04-17T09:58:17.036Z,1895.63
2018-04-17T09:59:17.208Z,1490.63
2018-04-17T10:00:17.382Z,1051.88
2018-04-17T10:01:17.559Z,1051.88
2018-04-17T10:02:17.733Z,871.88
2018-04-17T10:03:17.908Z,995.63
2018-04-17T10:04:18.090Z,1265.63
2018-04-17T10:05:18.262Z,826.88
2018-04-17T10:06:18.450Z,832.50
2018-04-17T10:07:18.610Z,1012.50
2018-04-17T10:08:18.788Z,675.00
2018-04-17T10:09:18.961Z,573.75
2018-04-17T10:10:19.124Z,1051.88
2018-04-17T10:11:19.299Z,1192.50
2018-04-17T10:12:19.472Z,849.38
2018-04-17T10:15:02.369Z,1068.75
2018-04-17T10:16:02.170Z,1456.88
2018-04-17T10:17:02.345Z,1226.25
2018-04-17T10:18:02.555Z,663.75
2018-04-17T10:19:02.703Z,776.25
2018-04-17T10:20:02.894Z,1676.25
2018-04-17T10:21:03.065Z,1749.38
2018-04-17T10:22:03.238Z,1974.38
2018-04-17T10:23:03.409Z,1951.88
2018-04-17T10:24:03.581Z,1912.50
2018-04-17T10:26:45.868Z,1906.88
2018-04-17T10:27:46.902Z,1766.25
2018-04-17T10:28:46.209Z,1496.25
2018-04-17T10:29:46.372Z,1456.88
2018-04-17T10:30:46.530Z,1558.13
2018-04-17T10:31:46.730Z,1518.75
2018-04-17T10:32:54.652Z,995.63
2018-04-17T10:33:47.097Z,1237.50
2018-04-17T10:34:48.926Z,1271.25
2018-04-17T10:35:54.821Z,1158.75
2018-04-17T10:36:47.493Z,1068.75
2018-04-17T10:37:47.807Z,838.13
2018-04-17T10:38:47.806Z,1591.88
2018-04-17T10:39:48.033Z,1704.38
2018-04-17T10:40:48.178Z,1468.13
2018-04-17T10:41:48.349Z,1586.25
2018-04-17T10:42:48.518Z,1518.75
2018-04-17T10:43:48.688Z,1755.00
2018-04-17T10:44:56.533Z,1980.00
2018-04-17T10:45:49.098Z,1873.13
2018-04-17T10:46:49.273Z,1715.63
2018-04-17T10:47:49.445Z,1186.88
2018-04-17T10:48:57.492Z,534.38
2018-04-17T10:49:49.782Z,461.25
2018-04-17T10:50:50.438Z,444.38
2018-04-17T10:51:50.176Z,433.13
2018-04-17T10:52:50.432Z,433.13
2018-04-17T10:53:50.581Z,421.88
2018-04-17T10:54:50.869Z,416.25
2018-04-17T10:55:50.940Z,410.63
2018-04-17T10:56:51.105Z,410.63
2018-04-17T10:57:51.281Z,410.63
2018-04-17T10:58:52.395Z,405.00
2018-04-17T10:59:51.656Z,421.88
2018-04-17T11:00:51.815Z,849.38
2018-04-17T11:01:53.021Z,1215.00
2018-04-17T11:02:52.175Z,1164.38
2018-04-17T11:08:42.821Z,354.38
2018-04-17T11:09:42.996Z,348.75
2018-04-17T11:10:43.165Z,348.75
2018-04-17T11:11:43.371Z,348.75
2018-04-17T11:12:43.513Z,348.75
2018-04-17T11:15:16.342Z,343.13
2018-04-17T11:16:15.728Z,343.13
2018-04-17T11:17:15.832Z,337.50
2018-04-17T11:18:23.933Z,331.88
2018-04-17T11:19:16.109Z,326.25
2018-04-17T11:20:16.277Z,326.25
2018-04-17T11:21:16.439Z,326.25
2018-04-17T11:22:16.641Z,315.00
2018-04-17T11:23:16.810Z,320.63
2018-04-17T11:24:17.064Z,320.63
2018-04-17T11:25:17.122Z,326.25
2018-04-17T11:26:17.289Z,326.25
2018-04-17T11:27:17.529Z,320.63
2018-04-17T11:28:17.619Z,326.25
2018-04-17T11:29:17.795Z,320.63
2018-04-17T11:30:17.965Z,315.00
2018-04-17T11:31:18.145Z,315.00
2018-04-17T11:32:18.303Z,236.25
2018-04-17T11:36:39.593Z,337.50
2018-04-17T11:37:39.782Z,331.88
2018-04-17T11:38:39.956Z,320.63
2018-04-17T11:39:40.120Z,309.38
2018-04-17T11:40:47.726Z,309.38
2018-04-17T11:41:40.393Z,303.75
2018-04-17T11:42:40.738Z,281.25
2018-04-17T11:43:40.838Z,281.25
2018-04-17T11:44:40.954Z,286.88
2018-04-17T11:45:41.113Z,281.25
2018-04-17T11:46:41.292Z,292.50
2018-04-17T11:47:41.463Z,286.88
2018-04-17T11:48:42.454Z,292.50
2018-04-17T11:49:49.597Z,309.38
2018-04-17T11:50:41.885Z,292.50
2018-04-17T11:51:42.072Z,292.50
2018-04-17T11:52:42.216Z,281.25
2018-04-17T11:53:42.396Z,270.00
2018-04-17T11:54:42.582Z,286.88
2018-04-17T11:55:42.752Z,298.13
2018-04-17T11:56:43.079Z,258.75
2018-04-17T11:57:43.325Z,281.25
2018-04-17T11:58:43.246Z,286.88
2018-04-17T11:59:43.419Z,253.13
2018-04-17T12:00:43.641Z,270.00
2018-04-17T12:01:43.809Z,236.25
2018-04-17T12:04:16.403Z,213.75
2018-04-17T12:05:16.614Z,213.75
2018-04-17T12:06:16.780Z,219.38
2018-04-17T12:07:16.977Z,275.63
2018-04-17T12:08:17.154Z,281.25
2018-04-17T12:09:17.327Z,270.00
2018-04-17T12:10:17.494Z,264.38
2018-04-17T12:11:17.664Z,258.75
2018-04-17T12:12:17.846Z,270.00
2018-04-17T12:13:18.029Z,275.63
2018-04-17T12:14:18.194Z,281.25
2018-04-17T12:15:18.374Z,281.25
2018-04-17T12:16:18.566Z,270.00
2018-04-17T12:17:27.392Z,270.00
2018-04-17T12:18:18.929Z,270.00
2018-04-17T12:19:19.103Z,270.00
2018-04-17T12:20:19.278Z,275.63
2018-04-17T12:21:19.478Z,264.38
2018-04-17T12:22:27.563Z,264.38
2018-04-17T12:23:19.782Z,264.38
2018-04-17T12:24:19.907Z,258.75
2018-04-17T12:25:20.112Z,258.75
2018-04-17T12:26:21.217Z,270.00
2018-04-17T12:27:20.512Z,264.38
2018-04-17T12:28:20.917Z,258.75
2018-04-17T12:29:20.917Z,258.75
2018-04-17T12:30:21.100Z,258.75
2018-04-17T12:31:21.321Z,264.38
2018-04-17T12:32:22.594Z,264.38
2018-04-17T12:33:21.630Z,258.75
2018-04-17T12:34:21.794Z,258.75
2018-04-17T12:35:22.002Z,258.75
2018-04-17T12:36:22.372Z,258.75
2018-04-17T12:37:22.330Z,258.75
2018-04-17T12:41:36.887Z,241.88
2018-04-17T12:42:37.060Z,241.88
2018-04-17T12:43:37.229Z,236.25
2018-04-17T12:44:37.398Z,236.25
2018-04-17T12:45:38.407Z,241.88
2018-04-17T12:46:37.705Z,241.88
2018-04-17T12:47:38.418Z,236.25
2018-04-17T12:48:38.099Z,230.63
2018-04-17T12:49:38.422Z,219.38
2018-04-17T12:50:38.413Z,219.38
2018-04-17T12:51:46.863Z,225.00
2018-04-17T12:52:38.671Z,225.00
2018-04-17T12:53:39.398Z,225.00
2018-04-17T12:54:39.857Z,225.00
2018-04-17T12:55:39.156Z,219.38
2018-04-17T12:56:39.321Z,219.38
2018-04-17T12:57:39.487Z,219.38
2018-04-17T12:58:39.797Z,213.75
2018-04-17T12:59:39.866Z,213.75
2018-04-17T13:00:40.040Z,208.13
2018-04-17T13:01:40.200Z,196.88
2018-04-17T13:02:48.334Z,202.50
2018-04-17T13:03:40.547Z,191.25
2018-04-17T13:04:40.739Z,202.50
2018-04-17T13:05:40.805Z,196.88
2018-04-17T13:06:48.806Z,202.50
2018-04-17T13:07:41.167Z,208.13
2018-04-17T13:08:41.433Z,213.75
2018-04-17T13:09:41.458Z,213.75
2018-04-17T13:10:41.687Z,213.75
2018-04-17T13:11:41.744Z,208.13
2018-04-17T13:12:42.008Z,213.75
2018-04-17T13:13:42.315Z,208.13
2018-04-17T13:14:42.257Z,208.13
2018-04-17T13:15:42.484Z,208.13
2018-04-17T13:16:42.640Z,213.75
2018-04-17T13:17:42.847Z,213.75
2018-04-17T13:18:43.018Z,208.13
2018-04-17T13:19:43.196Z,213.75
2018-04-17T13:20:43.415Z,202.50
2018-04-17T13:23:16.001Z,202.50
2018-04-17T13:24:16.169Z,196.88
2018-04-17T13:25:16.446Z,196.88
2018-04-17T13:26:16.538Z,196.88
2018-04-17T13:27:27.096Z,196.88
2018-04-17T13:28:16.851Z,196.88
2018-04-17T13:29:17.861Z,191.25
2018-04-17T13:30:17.469Z,191.25
2018-04-17T13:31:17.346Z,191.25
2018-04-17T13:32:17.556Z,196.88
2018-04-17T13:33:17.730Z,191.25
2018-04-17T13:34:17.921Z,191.25
2018-04-17T13:35:20.748Z,191.25
2018-04-17T13:36:18.313Z,191.25
2018-04-17T13:37:18.474Z,191.25
2018-04-17T13:38:18.650Z,191.25
2018-04-17T13:39:18.824Z,191.25
2018-04-17T13:40:18.991Z,191.25
2018-04-17T13:41:19.173Z,191.25
2018-04-17T13:42:27.308Z,191.25
2018-04-17T13:43:19.472Z,185.63
2018-04-17T13:44:19.644Z,185.63
2018-04-17T13:45:19.905Z,185.63
2018-04-17T13:46:19.944Z,185.63
2018-04-17T13:47:20.775Z,180.00
2018-04-17T13:48:20.319Z,180.00
2018-04-17T13:49:20.493Z,180.00
2018-04-17T13:50:27.835Z,180.00
2018-04-17T13:51:21.040Z,180.00
2018-04-17T13:52:21.085Z,180.00
2018-04-17T13:53:21.246Z,180.00
2018-04-17T13:54:21.416Z,180.00
2018-04-17T13:55:21.837Z,180.00
2018-04-17T13:56:21.760Z,180.00
2018-04-17T13:57:21.973Z,180.00
2018-04-17T13:58:22.199Z,185.63
2018-04-17T14:00:54.339Z,180.00
2018-04-17T14:01:54.510Z,180.00
2018-04-17T14:02:54.682Z,180.00
2018-04-17T14:03:54.851Z,180.00
2018-04-17T14:04:55.027Z,180.00
2018-04-17T14:05:55.212Z,174.38
2018-04-17T14:06:55.382Z,174.38
2018-04-17T14:07:55.554Z,174.38
2018-04-17T14:08:55.717Z,174.38
2018-04-17T14:09:55.920Z,174.38
2018-04-17T14:12:38.197Z,180.00
2018-04-17T14:13:38.439Z,174.38
2018-04-17T14:14:38.496Z,174.38
2018-04-17T14:15:38.656Z,174.38
2018-04-17T14:16:39.461Z,174.38
2018-04-17T14:17:39.015Z,174.38
2018-04-17T14:18:39.392Z,174.38
2018-04-17T14:19:46.766Z,174.38
2018-04-17T14:20:39.430Z,174.38
2018-04-17T14:21:39.599Z,168.75
2018-04-17T14:22:39.786Z,168.75
2018-04-17T14:23:40.742Z,168.75
2018-04-17T14:24:40.164Z,174.38
2018-04-17T14:25:40.334Z,174.38
2018-04-17T14:26:40.504Z,168.75
2018-04-17T14:27:40.675Z,174.38
2018-04-17T14:28:40.852Z,174.38
2018-04-17T14:29:41.024Z,174.38
2018-04-17T14:30:49.468Z,174.38
2018-04-17T14:31:48.551Z,168.75
2018-04-17T14:32:41.588Z,174.38
2018-04-17T14:33:41.763Z,174.38
2018-04-17T14:34:41.934Z,174.38
2018-04-17T14:35:42.105Z,168.75
2018-04-17T14:36:42.272Z,168.75
2018-04-17T14:37:42.447Z,168.75
2018-04-17T14:38:42.619Z,168.75
2018-04-17T14:39:50.257Z,163.13
2018-04-17T14:40:42.915Z,168.75
2018-04-17T14:41:43.133Z,168.75
2018-04-17T14:42:43.248Z,163.13
2018-04-17T14:43:43.448Z,168.75
2018-04-17T14:44:43.648Z,168.75
2018-04-17T14:45:43.767Z,168.75
2018-04-17T14:46:43.937Z,168.75
2018-04-17T14:47:44.112Z,168.75
2018-04-17T14:48:44.284Z,168.75
2018-04-17T14:49:44.508Z,168.75
2018-04-17T14:50:44.610Z,168.75
2018-04-17T14:51:52.497Z,163.13
2018-04-17T14:54:18.364Z,146.25
2018-04-17T14:55:18.481Z,135.00
2018-04-17T14:56:18.652Z,151.88
2018-04-17T14:57:20.548Z,146.25
2018-04-17T14:58:18.966Z,146.25
2018-04-17T14:59:19.217Z,140.63
2018-04-17T15:00:22.038Z,146.25
2018-04-17T15:01:27.937Z,151.88
2018-04-17T15:02:19.635Z,151.88
2018-04-17T15:03:19.819Z,140.63
2018-04-17T15:04:19.994Z,118.13
2018-04-17T15:05:20.162Z,123.75
2018-04-17T15:06:20.334Z,140.63
2018-04-17T15:07:20.502Z,151.88
2018-04-17T15:08:20.712Z,140.63
2018-04-17T15:09:20.886Z,140.63
2018-04-17T15:10:21.014Z,146.25
2018-04-17T15:11:22.018Z,146.25
2018-04-17T15:12:21.330Z,146.25
2018-04-17T15:13:22.107Z,140.63
2018-04-17T15:15:54.020Z,129.38
2018-04-17T15:16:54.201Z,146.25
2018-04-17T15:17:54.371Z,151.88
2018-04-17T15:18:54.536Z,146.25
2018-04-17T15:19:54.702Z,146.25
2018-04-17T15:20:54.877Z,140.63
2018-04-17T15:22:02.264Z,146.25
2018-04-17T15:22:55.178Z,151.88
2018-04-17T15:23:55.353Z,157.50
2018-04-17T15:24:55.525Z,157.50
2018-04-17T15:25:55.736Z,157.50
2018-04-17T15:26:55.880Z,146.25
2018-04-17T15:27:56.057Z,157.50
2018-04-17T15:28:56.265Z,157.50
2018-04-17T15:29:56.411Z,157.50
2018-04-17T15:30:56.575Z,151.88
2018-04-17T15:31:56.754Z,157.50
2018-04-17T15:32:56.929Z,157.50
2018-04-17T15:34:05.221Z,151.88
2018-04-17T15:34:57.297Z,151.88
2018-04-17T15:35:57.430Z,151.88
2018-04-17T15:36:57.490Z,151.88
2018-04-17T15:37:57.732Z,151.88
2018-04-17T15:38:57.797Z,151.88
2018-04-17T15:39:58.004Z,146.25
2018-04-17T15:40:58.176Z,146.25
2018-04-17T15:41:58.344Z,140.63
2018-04-17T15:42:58.529Z,140.63
2018-04-17T15:44:06.366Z,140.63
2018-04-17T15:44:59.003Z,135.00
2018-04-17T15:45:59.074Z,123.75
2018-04-17T15:46:59.243Z,118.13
2018-04-17T15:48:00.301Z,118.13
2018-04-17T15:49:00.300Z,118.13
2018-04-17T15:50:00.651Z,112.50
2018-04-17T15:50:59.959Z,106.88
2018-04-17T15:52:00.117Z,106.88
2018-04-17T15:53:00.312Z,106.88
2018-04-17T15:54:00.503Z,106.88
2018-04-17T15:55:08.352Z,95.63
2018-04-17T15:56:00.896Z,118.13
2018-04-17T15:57:01.062Z,123.75
2018-04-17T15:58:01.544Z,123.75
2018-04-17T15:59:02.312Z,129.38
2018-04-17T16:00:01.486Z,123.75
2018-04-17T16:01:01.718Z,118.13
2018-04-17T16:02:01.769Z,123.75
2018-04-17T16:03:01.918Z,129.38
2018-04-17T16:04:02.167Z,123.75
2018-04-17T16:05:02.226Z,129.38
2018-04-17T16:06:03.633Z,123.75
2018-04-17T16:07:10.334Z,123.75
2018-04-17T16:08:02.691Z,123.75
2018-04-17T16:09:02.885Z,118.13
2018-04-17T16:10:03.078Z,118.13
2018-04-17T16:11:03.247Z,118.13
2018-04-17T16:12:03.410Z,118.13
2018-04-17T16:13:03.589Z,118.13
2018-04-17T16:15:43.939Z,106.88
2018-04-17T16:16:35.763Z,101.25
2018-04-17T16:17:35.926Z,95.63
2018-04-17T16:18:36.099Z,95.63
2018-04-17T16:19:36.285Z,90.00
2018-04-17T16:20:36.457Z,90.00
2018-04-17T16:21:37.628Z,101.25
2018-04-17T16:22:36.753Z,84.38
2018-04-17T16:23:36.966Z,84.38
2018-04-17T16:24:37.135Z,90.00
2018-04-17T16:25:38.027Z,90.00
2018-04-17T16:29:17.956Z,84.38
2018-04-17T16:30:25.467Z,84.38
2018-04-17T16:31:18.137Z,90.00
2018-04-17T16:32:18.304Z,90.00
2018-04-17T16:33:18.473Z,95.63
2018-04-17T16:34:18.638Z,90.00
2018-04-17T16:35:18.812Z,90.00
2018-04-17T16:36:18.969Z,84.38
2018-04-17T16:37:19.144Z,78.75
2018-04-17T16:38:19.320Z,73.13
2018-04-17T16:39:19.485Z,67.50
2018-04-17T16:42:52.115Z,61.88
2018-04-17T16:43:51.981Z,61.88
2018-04-17T16:44:52.168Z,61.88
2018-04-17T16:45:52.913Z,61.88
2018-04-17T16:46:52.452Z,67.50
2018-04-17T16:47:52.625Z,67.50
2018-04-17T16:48:52.794Z,61.88
2018-04-17T16:49:52.958Z,61.88
2018-04-17T16:50:53.918Z,61.88
2018-04-17T16:51:53.334Z,61.88
2018-04-17T16:53:01.590Z,61.88
2018-04-17T16:53:53.743Z,56.25
2018-04-17T16:54:54.304Z,56.25
2018-04-17T16:55:54.104Z,56.25
2018-04-17T16:56:55.628Z,56.25
2018-04-17T16:57:54.537Z,61.88
2018-04-17T16:58:54.584Z,56.25
2018-04-17T17:00:03.035Z,56.25
2018-04-17T17:00:54.951Z,56.25
2018-04-17T17:01:55.139Z,56.25
2018-04-17T17:02:55.322Z,56.25
2018-04-17T17:04:02.958Z,56.25
2018-04-17T17:04:55.650Z,56.25
2018-04-17T17:05:55.821Z,56.25
2018-04-17T17:06:55.991Z,56.25
2018-04-17T17:07:56.157Z,56.25
2018-04-17T17:08:56.326Z,56.25
2018-04-17T17:09:56.507Z,56.25
2018-04-17T17:10:56.674Z,56.25
2018-04-17T17:11:56.844Z,56.25
2018-04-17T17:12:57.014Z,50.63
2018-04-17T17:13:57.184Z,50.63
2018-04-17T17:14:57.342Z,50.63
2018-04-17T17:15:57.513Z,50.63
2018-04-17T17:16:57.720Z,50.63
2018-04-17T17:17:57.863Z,50.63
2018-04-17T17:20:30.151Z,50.63
2018-04-17T17:21:30.347Z,50.63
2018-04-17T17:22:37.683Z,50.63
2018-04-17T17:23:30.751Z,50.63
2018-04-17T17:24:30.874Z,50.63
2018-04-17T17:25:31.049Z,50.63
2018-04-17T17:26:31.219Z,45.00
2018-04-17T17:27:31.376Z,45.00
2018-04-17T17:28:31.707Z,45.00
2018-04-17T17:29:31.760Z,45.00
2018-04-17T17:30:32.702Z,45.00
2018-04-17T17:31:32.144Z,45.00
2018-04-17T17:32:32.307Z,45.00
2018-04-17T17:35:04.601Z,39.38
2018-04-17T17:36:04.771Z,39.38
2018-04-17T17:37:04.955Z,39.38
2018-04-17T17:38:05.157Z,33.75
2018-04-17T17:39:05.329Z,33.75
2018-04-17T17:40:05.498Z,33.75
2018-04-17T17:41:05.675Z,28.13
2018-04-17T17:42:05.838Z,28.13
2018-04-17T17:43:06.011Z,28.13
2018-04-17T17:44:14.144Z,28.13
2018-04-17T17:45:06.294Z,22.50
2018-04-17T17:46:06.476Z,22.50
2018-04-17T17:47:06.658Z,22.50
2018-04-17T17:48:06.825Z,22.50
2018-04-17T17:49:06.992Z,22.50
2018-04-17T17:50:07.146Z,16.88
2018-04-17T17:51:07.327Z,16.88
2018-04-17T17:52:07.479Z,16.88
2018-04-17T17:53:15.116Z,16.88
2018-04-17T17:54:07.779Z,11.25
2018-04-17T17:55:07.952Z,11.25
2018-04-17T17:56:08.110Z,11.25
2018-04-17T17:57:08.296Z,11.25
2018-04-17T17:58:08.526Z,11.25
2018-04-17T17:59:15.848Z,11.25
2018-04-17T18:00:08.890Z,5.63
2018-04-17T18:01:09.053Z,5.63
2018-04-17T18:02:09.224Z,5.63
2018-04-17T18:03:09.386Z,5.63
2018-04-17T18:04:09.558Z,5.63
2018-04-17T18:05:09.735Z,5.63
2018-04-17T18:06:09.914Z,5.63
2018-04-17T18:07:10.083Z,5.63
2018-04-17T18:08:17.946Z,5.63
2018-04-17T18:09:10.362Z,5.63
2018-04-17T18:10:10.536Z,5.63
2018-04-17T18:11:10.710Z,5.63
2018-04-17T18:12:10.875Z,0.00
2018-04-17T18:13:11.037Z,0.00
2018-04-17T18:14:12.196Z,0.00
2018-04-17T18:15:12.198Z,0.00
2018-04-17T18:16:11.495Z,0.00
2018-04-17T18:17:11.660Z,0.00
2018-04-17T18:18:11.826Z,0.00
2018-04-17T18:19:11.996Z,0.00
2018-04-17T18:20:12.165Z,0.00
2018-04-17T18:21:12.337Z,0.00
2018-04-17T18:22:12.508Z,0.00
2018-04-17T18:23:12.674Z,0.00
2018-04-17T18:25:55.257Z,0.00
2018-04-17T18:26:55.434Z,0.00
2018-04-17T18:27:55.597Z,0.00
2018-04-17T18:28:55.777Z,0.00
2018-04-17T18:29:55.938Z,0.00
2018-04-17T18:30:56.107Z,0.00
2018-04-17T18:31:56.276Z,0.00
2018-04-17T18:32:56.446Z,0.00
2018-04-17T18:33:56.615Z,0.00
2018-04-17T18:34:56.784Z,0.00
2018-04-17T18:35:56.954Z,0.00
2018-04-17T18:36:57.124Z,0.00
2018-04-17T18:37:57.290Z,0.00
2018-04-17T18:38:57.458Z,0.00
2018-04-17T18:39:57.639Z,0.00
2018-04-17T18:48:48.409Z,0.00
2018-04-17T18:49:48.455Z,0.00
2018-04-17T18:50:56.093Z,0.00
2018-04-17T18:51:56.225Z,0.00
2018-04-17T18:52:48.898Z,0.00
2018-04-17T18:53:49.063Z,0.00
2018-04-17T18:54:49.232Z,0.00
2018-04-17T18:55:49.395Z,0.00
2018-04-17T18:56:49.565Z,0.00
2018-04-17T18:57:49.729Z,0.00
2018-04-17T18:58:49.896Z,0.00
2018-04-17T18:59:50.047Z,0.00
2018-04-17T19:00:50.237Z,0.00
2018-04-17T19:01:50.408Z,0.00
2018-04-17T19:02:50.579Z,0.00
2018-04-17T19:03:50.748Z,0.00
2018-04-17T19:04:50.912Z,0.00
2018-04-17T19:05:51.923Z,0.00
2018-04-17T19:08:33.320Z,0.00
2018-04-17T19:09:33.482Z,0.00
2018-04-17T19:10:33.658Z,0.00
2018-04-17T19:11:33.842Z,0.00
2018-04-17T19:12:34.032Z,0.00
2018-04-17T19:13:41.370Z,0.00
2018-04-17T19:14:34.409Z,0.00
2018-04-17T19:15:34.580Z,0.00
2018-04-17T19:16:34.750Z,0.00
2018-04-17T19:17:34.923Z,0.00
2018-04-17T19:18:35.091Z,0.00
2018-04-17T19:19:35.261Z,0.00
2018-04-17T19:20:35.418Z,0.00
2018-04-17T19:21:42.750Z,0.00
2018-04-17T19:22:35.787Z,0.00
2018-04-17T19:23:35.959Z,0.00
2018-04-17T19:24:36.126Z,0.00
2018-04-17T19:25:36.293Z,0.00
2018-04-17T19:26:36.523Z,0.00
2018-04-17T19:27:36.631Z,0.00
2018-04-17T19:28:36.801Z,0.00
2018-04-17T19:29:38.880Z,0.00
2018-04-17T19:30:37.172Z,0.00
2018-04-17T19:34:20.608Z,0.00
2018-04-17T19:35:20.774Z,0.00
2018-04-17T19:36:20.948Z,0.00
2018-04-17T19:37:21.117Z,0.00
2018-04-17T19:38:21.288Z,0.00
2018-04-17T19:39:21.457Z,0.00
2018-04-17T19:40:21.626Z,0.00
2018-04-17T19:41:21.794Z,0.00
2018-04-17T19:42:21.963Z,0.00
2018-04-17T19:43:22.127Z,0.00
2018-04-17T19:47:33.040Z,0.00
2018-04-17T19:48:32.834Z,0.00
2018-04-17T19:49:33.002Z,0.00
2018-04-17T19:50:33.171Z,0.00
2018-04-17T19:51:33.340Z,0.00
2018-04-17T19:52:33.512Z,0.00
2018-04-17T19:53:33.708Z,0.00
2018-04-17T19:54:33.838Z,0.00
2018-04-17T19:55:34.009Z,0.00
2018-04-17T19:56:34.179Z,0.00
2018-04-17T19:57:34.348Z,0.00
2018-04-17T19:58:34.511Z,0.00
2018-04-17T19:59:34.680Z,0.00
2018-04-17T20:00:34.847Z,0.00
2018-04-17T20:01:35.015Z,0.00
2018-04-17T20:04:07.585Z,0.00
2018-04-17T20:05:07.756Z,0.00
2018-04-17T20:06:07.921Z,0.00
2018-04-17T20:07:15.259Z,0.00
2018-04-17T20:08:08.305Z,0.00
2018-04-17T20:09:08.472Z,0.00
2018-04-17T20:10:08.640Z,0.00
2018-04-17T20:11:08.811Z,0.00
2018-04-17T20:12:08.975Z,0.00
2018-04-17T20:13:09.143Z,0.00
2018-04-17T20:14:09.302Z,0.00
2018-04-17T20:15:09.482Z,0.00
2018-04-17T20:16:09.656Z,0.00
2018-04-17T20:17:09.816Z,0.00
2018-04-17T20:18:09.982Z,0.00
2018-04-17T20:19:10.151Z,0.00
2018-04-17T20:20:10.317Z,0.00
2018-04-17T20:21:10.483Z,0.00
2018-04-17T20:23:52.751Z,0.00
2018-04-17T20:24:52.920Z,0.00
2018-04-17T20:25:53.088Z,0.00
2018-04-17T20:26:53.261Z,0.00
2018-04-17T20:27:53.427Z,0.00
2018-04-17T20:28:53.595Z,0.00
2018-04-17T20:29:53.763Z,0.00
2018-04-17T20:30:53.930Z,0.00
2018-04-17T20:31:54.095Z,0.00
2018-04-17T20:32:54.263Z,0.00
2018-04-17T20:33:54.431Z,0.00
2018-04-17T20:34:54.598Z,0.00
2018-04-17T20:35:54.767Z,0.00
2018-04-17T20:36:54.932Z,0.00
2018-04-17T20:37:55.101Z,0.00
2018-04-17T20:40:37.392Z,0.00
2018-04-17T20:41:37.561Z,0.00
2018-04-17T20:42:37.727Z,0.00
2018-04-17T20:43:37.899Z,0.00
2018-04-17T20:44:38.071Z,0.00
2018-04-17T20:45:38.240Z,0.00
2018-04-17T20:46:38.406Z,0.00
2018-04-17T20:47:38.575Z,0.00
2018-04-17T20:48:38.742Z,0.00
2018-04-17T20:49:38.911Z,0.00
2018-04-17T21:26:50.226Z,0.00
2018-04-17T21:27:50.398Z,0.00
2018-04-17T21:28:50.568Z,0.00
2018-04-17T21:29:50.736Z,0.00
2018-04-17T21:30:50.913Z,0.00
2018-04-17T21:31:51.064Z,0.00
2018-04-17T21:32:51.234Z,0.00
2018-04-17T21:33:51.407Z,0.00
2018-04-17T21:34:51.567Z,0.00
2018-04-17T21:35:51.737Z,0.00